sensor_id;sensor_type;location;lat;lon;timestamp;pressure;altitude;pressure_sealevel;temperature;humidity
43450;BME280;29041;42.266;23.110;2023-08-08T00:00:16;95631.91;;;16.58;100.00
43450;BME280;29041;42.266;23.110;2023-08-08T00:03:05;95634.22;;;16.32;100.00
43450;BME280;29041;42.266;23.110;2023-08-08T00:05:54;95628.00;;;16.28;100.00
43450;BME280;29041;42.266;23.110;2023-08-08T00:08:41;95616.78;;;16.07;100.00
43450;BME280;29041;42.266;23.110;2023-08-08T00:11:29;95597.28;;;16.21;100.00
43450;BME280;29041;42.266;23.110;2023-08-08T00:14:16;95607.38;;;16.47;100.00
43450;BME280;29041;42.266;23.110;2023-08-08T00:17:04;95610.94;;;17.35;100.00
43450;BME280;29041;42.266;23.110;2023-08-08T00:19:52;95612.91;;;17.08;100.00
43450;BME280;29041;42.266;23.110;2023-08-08T00:22:39;95611.25;;;16.73;100.00
43450;BME280;29041;42.266;23.110;2023-08-08T00:30:36;95628.88;;;15.90;100.00
43450;BME280;29041;42.266;23.110;2023-08-08T00:33:23;95628.81;;;15.86;100.00
43450;BME280;29041;42.266;23.110;2023-08-08T00:36:12;95621.00;;;16.27;100.00
43450;BME280;29041;42.266;23.110;2023-08-08T00:38:59;95629.72;;;16.40;100.00
43450;BME280;29041;42.266;23.110;2023-08-08T00:41:46;95613.09;;;16.42;100.00
43450;BME280;29041;42.266;23.110;2023-08-08T00:44:34;95621.59;;;16.17;100.00
43450;BME280;29041;42.266;23.110;2023-08-08T00:47:23;95629.13;;;16.04;100.00
43450;BME280;29041;42.266;23.110;2023-08-08T00:50:12;95622.69;;;16.36;100.00
43450;BME280;29041;42.266;23.110;2023-08-08T00:53:04;95626.72;;;15.99;100.00
43450;BME280;29041;42.266;23.110;2023-08-08T00:55:52;95624.19;;;15.86;100.00
43450;BME280;29041;42.266;23.110;2023-08-08T00:58:40;95639.03;;;16.20;100.00
43450;BME280;29041;42.266;23.110;2023-08-08T01:01:27;95637.09;;;16.67;100.00
43450;BME280;29041;42.266;23.110;2023-08-08T01:04:17;95633.72;;;17.00;100.00
43450;BME280;29041;42.266;23.110;2023-08-08T01:10:15;95637.28;;;16.54;100.00
43450;BME280;29041;42.266;23.110;2023-08-08T01:13:07;95643.94;;;16.57;100.00
43450;BME280;29041;42.266;23.110;2023-08-08T01:15:57;95638.81;;;16.28;100.00
43450;BME280;29041;42.266;23.110;2023-08-08T01:18:46;95653.84;;;16.49;100.00
43450;BME280;29041;42.266;23.110;2023-08-08T01:21:35;95659.72;;;17.01;100.00
43450;BME280;29041;42.266;23.110;2023-08-08T01:24:27;95660.16;;;17.07;100.00
43450;BME280;29041;42.266;23.110;2023-08-08T01:27:16;95652.13;;;16.60;100.00
43450;BME280;29041;42.266;23.110;2023-08-08T01:30:04;95658.16;;;16.77;100.00
43450;BME280;29041;42.266;23.110;2023-08-08T01:32:51;95658.66;;;16.36;100.00
43450;BME280;29041;42.266;23.110;2023-08-08T01:35:42;95662.47;;;16.31;100.00
43450;BME280;29041;42.266;23.110;2023-08-08T01:38:32;95676.63;;;16.21;100.00
43450;BME280;29041;42.266;23.110;2023-08-08T01:41:22;95668.84;;;16.20;100.00
43450;BME280;29041;42.266;23.110;2023-08-08T01:44:10;95677.56;;;16.32;100.00
43450;BME280;29041;42.266;23.110;2023-08-08T01:46:57;95676.19;;;16.42;100.00
43450;BME280;29041;42.266;23.110;2023-08-08T01:49:44;95681.38;;;16.28;100.00
43450;BME280;29041;42.266;23.110;2023-08-08T01:52:31;95696.69;;;16.63;100.00
43450;BME280;29041;42.266;23.110;2023-08-08T01:55:19;95704.34;;;16.14;100.00
43450;BME280;29041;42.266;23.110;2023-08-08T01:58:07;95695.84;;;16.16;100.00
43450;BME280;29041;42.266;23.110;2023-08-08T02:00:54;95690.56;;;16.70;100.00
43450;BME280;29041;42.266;23.110;2023-08-08T02:03:41;95711.75;;;17.10;100.00
43450;BME280;29041;42.266;23.110;2023-08-08T02:06:28;95702.53;;;16.92;100.00
43450;BME280;29041;42.266;23.110;2023-08-08T02:09:16;95706.84;;;16.93;100.00
43450;BME280;29041;42.266;23.110;2023-08-08T02:12:03;95691.97;;;16.60;100.00
43450;BME280;29041;42.266;23.110;2023-08-08T02:14:52;95704.50;;;16.45;100.00
43450;BME280;29041;42.266;23.110;2023-08-08T02:17:39;95720.59;;;16.14;100.00
43450;BME280;29041;42.266;23.110;2023-08-08T02:20:26;95710.22;;;16.40;100.00
43450;BME280;29041;42.266;23.110;2023-08-08T02:23:13;95728.22;;;16.28;100.00
43450;BME280;29041;42.266;23.110;2023-08-08T02:26:00;95710.00;;;16.99;100.00
43450;BME280;29041;42.266;23.110;2023-08-08T02:28:48;95722.81;;;16.75;100.00
43450;BME280;29041;42.266;23.110;2023-08-08T02:31:36;95728.81;;;16.64;100.00
43450;BME280;29041;42.266;23.110;2023-08-08T02:34:23;95733.16;;;16.69;100.00
43450;BME280;29041;42.266;23.110;2023-08-08T02:37:10;95737.22;;;16.56;100.00
43450;BME280;29041;42.266;23.110;2023-08-08T02:39:57;95747.63;;;16.54;100.00
43450;BME280;29041;42.266;23.110;2023-08-08T02:42:45;95743.66;;;16.47;100.00
43450;BME280;29041;42.266;23.110;2023-08-08T02:45:32;95746.34;;;16.71;100.00
43450;BME280;29041;42.266;23.110;2023-08-08T02:48:20;95749.25;;;16.58;100.00
43450;BME280;29041;42.266;23.110;2023-08-08T02:51:07;95754.63;;;16.35;100.00
43450;BME280;29041;42.266;23.110;2023-08-08T02:53:55;95757.13;;;16.67;100.00
43450;BME280;29041;42.266;23.110;2023-08-08T02:56:42;95766.63;;;16.34;100.00
43450;BME280;29041;42.266;23.110;2023-08-08T02:59:29;95771.34;;;16.60;100.00
43450;BME280;29041;42.266;23.110;2023-08-08T03:02:17;95781.66;;;16.74;100.00
43450;BME280;29041;42.266;23.110;2023-08-08T03:05:06;95775.34;;;16.47;100.00
43450;BME280;29041;42.266;23.110;2023-08-08T03:07:53;95787.19;;;16.58;100.00
43450;BME280;29041;42.266;23.110;2023-08-08T03:10:41;95781.50;;;16.90;100.00
43450;BME280;29041;42.266;23.110;2023-08-08T03:13:28;95785.34;;;17.36;100.00
43450;BME280;29041;42.266;23.110;2023-08-08T03:16:15;95785.19;;;17.25;100.00
43450;BME280;29041;42.266;23.110;2023-08-08T03:19:02;95790.50;;;17.18;100.00
43450;BME280;29041;42.266;23.110;2023-08-08T03:21:51;95788.06;;;17.36;100.00
43450;BME280;29041;42.266;23.110;2023-08-08T03:24:38;95789.84;;;17.24;100.00
43450;BME280;29041;42.266;23.110;2023-08-08T03:27:25;95795.03;;;17.10;100.00
43450;BME280;29041;42.266;23.110;2023-08-08T03:30:13;95786.56;;;16.69;100.00
43450;BME280;29041;42.266;23.110;2023-08-08T03:33:00;95793.50;;;16.66;100.00
43450;BME280;29041;42.266;23.110;2023-08-08T03:35:47;95788.31;;;16.80;100.00
43450;BME280;29041;42.266;23.110;2023-08-08T03:38:36;95787.84;;;16.52;100.00
43450;BME280;29041;42.266;23.110;2023-08-08T03:41:23;95806.59;;;16.84;100.00
43450;BME280;29041;42.266;23.110;2023-08-08T03:44:10;95801.25;;;16.44;100.00
43450;BME280;29041;42.266;23.110;2023-08-08T03:46:57;95813.03;;;16.32;100.00
43450;BME280;29041;42.266;23.110;2023-08-08T03:49:45;95823.94;;;16.36;100.00
43450;BME280;29041;42.266;23.110;2023-08-08T03:52:32;95803.91;;;16.21;100.00
43450;BME280;29041;42.266;23.110;2023-08-08T03:55:22;95798.56;;;16.25;100.00
43450;BME280;29041;42.266;23.110;2023-08-08T03:58:09;95808.06;;;16.15;100.00
43450;BME280;29041;42.266;23.110;2023-08-08T04:00:56;95802.25;;;16.36;100.00
43450;BME280;29041;42.266;23.110;2023-08-08T04:03:43;95802.50;;;16.27;100.00
43450;BME280;29041;42.266;23.110;2023-08-08T04:06:31;95799.56;;;16.16;100.00
43450;BME280;29041;42.266;23.110;2023-08-08T04:09:18;95795.28;;;16.15;100.00
43450;BME280;29041;42.266;23.110;2023-08-08T04:12:07;95810.13;;;16.64;100.00
43450;BME280;29041;42.266;23.110;2023-08-08T04:14:54;95813.88;;;16.37;100.00
43450;BME280;29041;42.266;23.110;2023-08-08T04:17:42;95817.09;;;16.23;100.00
43450;BME280;29041;42.266;23.110;2023-08-08T04:20:29;95803.63;;;16.07;100.00
43450;BME280;29041;42.266;23.110;2023-08-08T04:23:16;95809.38;;;16.05;100.00
43450;BME280;29041;42.266;23.110;2023-08-08T04:26:03;95821.88;;;16.29;100.00
43450;BME280;29041;42.266;23.110;2023-08-08T04:28:51;95813.88;;;16.17;100.00
43450;BME280;29041;42.266;23.110;2023-08-08T04:31:39;95822.59;;;16.26;100.00
43450;BME280;29041;42.266;23.110;2023-08-08T04:34:26;95807.47;;;16.25;100.00
43450;BME280;29041;42.266;23.110;2023-08-08T04:37:13;95809.31;;;16.01;100.00
43450;BME280;29041;42.266;23.110;2023-08-08T04:40:04;95809.69;;;16.00;100.00
43450;BME280;29041;42.266;23.110;2023-08-08T04:42:51;95813.03;;;16.13;100.00
43450;BME280;29041;42.266;23.110;2023-08-08T04:45:41;95818.19;;;15.82;100.00
43450;BME280;29041;42.266;23.110;2023-08-08T04:48:28;95827.72;;;16.12;100.00
43450;BME280;29041;42.266;23.110;2023-08-08T04:51:16;95827.72;;;16.12;100.00
43450;BME280;29041;42.266;23.110;2023-08-08T04:54:03;95836.41;;;16.21;100.00
43450;BME280;29041;42.266;23.110;2023-08-08T04:56:52;95826.16;;;15.91;100.00
43450;BME280;29041;42.266;23.110;2023-08-08T04:59:39;95839.34;;;16.32;100.00
43450;BME280;29041;42.266;23.110;2023-08-08T05:02:29;95831.28;;;16.36;100.00
43450;BME280;29041;42.266;23.110;2023-08-08T05:05:17;95836.97;;;16.50;100.00
43450;BME280;29041;42.266;23.110;2023-08-08T05:08:04;95846.78;;;16.78;100.00
43450;BME280;29041;42.266;23.110;2023-08-08T05:10:51;95852.78;;;16.68;100.00
43450;BME280;29041;42.266;23.110;2023-08-08T05:13:38;95856.97;;;16.65;100.00
43450;BME280;29041;42.266;23.110;2023-08-08T05:16:25;95855.78;;;16.62;100.00
43450;BME280;29041;42.266;23.110;2023-08-08T05:19:14;95873.06;;;16.34;100.00
43450;BME280;29041;42.266;23.110;2023-08-08T05:22:01;95869.50;;;16.30;100.00
43450;BME280;29041;42.266;23.110;2023-08-08T05:24:48;95890.75;;;16.28;100.00
43450;BME280;29041;42.266;23.110;2023-08-08T05:27:35;95880.38;;;15.95;100.00
43450;BME280;29041;42.266;23.110;2023-08-08T05:30:22;95899.50;;;16.61;100.00
43450;BME280;29041;42.266;23.110;2023-08-08T05:33:10;95889.38;;;16.77;100.00
43450;BME280;29041;42.266;23.110;2023-08-08T05:35:58;95884.56;;;17.10;100.00
43450;BME280;29041;42.266;23.110;2023-08-08T05:38:45;95885.31;;;17.57;100.00
43450;BME280;29041;42.266;23.110;2023-08-08T05:41:32;95898.91;;;17.34;100.00
43450;BME280;29041;42.266;23.110;2023-08-08T05:44:20;95899.38;;;16.93;100.00
43450;BME280;29041;42.266;23.110;2023-08-08T05:47:07;95906.97;;;17.53;100.00
43450;BME280;29041;42.266;23.110;2023-08-08T05:49:54;95905.16;;;17.15;100.00
43450;BME280;29041;42.266;23.110;2023-08-08T05:52:42;95902.09;;;17.16;100.00
43450;BME280;29041;42.266;23.110;2023-08-08T05:55:30;95914.94;;;17.19;100.00
43450;BME280;29041;42.266;23.110;2023-08-08T05:58:17;95926.78;;;16.91;100.00
43450;BME280;29041;42.266;23.110;2023-08-08T06:01:04;95912.28;;;16.41;100.00
43450;BME280;29041;42.266;23.110;2023-08-08T06:03:52;95919.63;;;16.99;100.00
43450;BME280;29041;42.266;23.110;2023-08-08T06:06:39;95916.53;;;17.01;98.90
43450;BME280;29041;42.266;23.110;2023-08-08T06:09:33;95932.63;;;17.33;99.81
43450;BME280;29041;42.266;23.110;2023-08-08T06:12:22;95950.91;;;17.16;98.81
43450;BME280;29041;42.266;23.110;2023-08-08T06:15:09;95931.69;;;16.82;98.77
43450;BME280;29041;42.266;23.110;2023-08-08T06:17:57;95940.88;;;17.40;95.93
43450;BME280;29041;42.266;23.110;2023-08-08T06:20:44;95947.56;;;17.46;95.34
43450;BME280;29041;42.266;23.110;2023-08-08T06:23:31;95942.00;;;17.39;93.33
43450;BME280;29041;42.266;23.110;2023-08-08T06:26:20;95939.56;;;17.30;90.53
43450;BME280;29041;42.266;23.110;2023-08-08T06:29:07;95954.56;;;17.47;89.30
43450;BME280;29041;42.266;23.110;2023-08-08T06:31:55;95964.03;;;17.57;88.03
43450;BME280;29041;42.266;23.110;2023-08-08T06:34:42;95959.09;;;17.63;88.15
43450;BME280;29041;42.266;23.110;2023-08-08T06:37:30;95943.22;;;18.15;83.38
43450;BME280;29041;42.266;23.110;2023-08-08T06:40:17;95952.41;;;17.56;87.64
43450;BME280;29041;42.266;23.110;2023-08-08T06:43:06;95960.94;;;17.82;85.70
43450;BME280;29041;42.266;23.110;2023-08-08T06:45:53;95953.19;;;17.84;86.64
43450;BME280;29041;42.266;23.110;2023-08-08T06:48:42;95965.16;;;17.56;88.51
43450;BME280;29041;42.266;23.110;2023-08-08T06:51:30;95967.22;;;17.63;87.33
43450;BME280;29041;42.266;23.110;2023-08-08T06:54:17;95959.78;;;17.59;89.04
43450;BME280;29041;42.266;23.110;2023-08-08T06:57:04;95960.59;;;17.37;90.26
43450;BME280;29041;42.266;23.110;2023-08-08T06:59:53;95972.53;;;18.02;87.16
43450;BME280;29041;42.266;23.110;2023-08-08T07:02:40;95964.53;;;18.13;85.14
43450;BME280;29041;42.266;23.110;2023-08-08T07:05:27;95970.97;;;18.01;84.17
43450;BME280;29041;42.266;23.110;2023-08-08T07:08:15;95981.28;;;18.18;83.17
43450;BME280;29041;42.266;23.110;2023-08-08T07:11:03;95963.41;;;18.17;82.71
43450;BME280;29041;42.266;23.110;2023-08-08T07:13:50;95977.69;;;18.11;82.02
43450;BME280;29041;42.266;23.110;2023-08-08T07:16:38;95984.44;;;18.20;81.56
43450;BME280;29041;42.266;23.110;2023-08-08T07:19:25;95995.69;;;18.19;80.32
43450;BME280;29041;42.266;23.110;2023-08-08T07:22:13;95980.44;;;18.41;80.25
43450;BME280;29041;42.266;23.110;2023-08-08T07:25:00;95975.75;;;18.68;78.82
43450;BME280;29041;42.266;23.110;2023-08-08T07:27:48;95977.16;;;19.20;76.46
43450;BME280;29041;42.266;23.110;2023-08-08T07:30:35;95978.13;;;19.83;73.58
43450;BME280;29041;42.266;23.110;2023-08-08T07:33:24;95979.97;;;20.17;71.57
43450;BME280;29041;42.266;23.110;2023-08-08T07:36:11;95966.28;;;20.06;72.07
43450;BME280;29041;42.266;23.110;2023-08-08T07:38:58;95978.19;;;20.50;69.10
43450;BME280;29041;42.266;23.110;2023-08-08T07:41:46;95952.09;;;21.80;63.13
43450;BME280;29041;42.266;23.110;2023-08-08T07:44:33;95950.00;;;24.02;54.29
43450;BME280;29041;42.266;23.110;2023-08-08T07:47:23;95959.88;;;22.11;58.50
43450;BME280;29041;42.266;23.110;2023-08-08T07:50:12;95963.63;;;22.78;55.66
43450;BME280;29041;42.266;23.110;2023-08-08T07:52:59;95947.03;;;25.27;48.25
43450;BME280;29041;42.266;23.110;2023-08-08T07:55:46;95933.56;;;26.75;46.46
43450;BME280;29041;42.266;23.110;2023-08-08T07:58:33;95941.69;;;27.03;42.24
43450;BME280;29041;42.266;23.110;2023-08-08T08:01:20;95932.84;;;26.07;42.53
43450;BME280;29041;42.266;23.110;2023-08-08T08:04:08;95958.34;;;24.71;45.84
43450;BME280;29041;42.266;23.110;2023-08-08T08:06:57;95937.31;;;25.97;43.67
43450;BME280;29041;42.266;23.110;2023-08-08T08:09:44;95921.56;;;26.45;42.99
43450;BME280;29041;42.266;23.110;2023-08-08T08:12:32;95927.91;;;27.39;42.92
43450;BME280;29041;42.266;23.110;2023-08-08T08:15:19;95931.34;;;28.56;38.20
43450;BME280;29041;42.266;23.110;2023-08-08T08:18:06;95922.97;;;26.94;41.63
43450;BME280;29041;42.266;23.110;2023-08-08T08:20:53;95918.09;;;24.19;50.19
43450;BME280;29041;42.266;23.110;2023-08-08T08:23:42;95907.94;;;27.52;42.32
43450;BME280;29041;42.266;23.110;2023-08-08T08:26:29;95902.41;;;29.03;37.56
43450;BME280;29041;42.266;23.110;2023-08-08T08:29:16;95913.19;;;27.63;40.00
43450;BME280;29041;42.266;23.110;2023-08-08T08:32:04;95913.66;;;28.53;40.15
43450;BME280;29041;42.266;23.110;2023-08-08T08:34:51;95927.47;;;27.91;39.95
43450;BME280;29041;42.266;23.110;2023-08-08T08:37:38;95926.53;;;28.14;38.08
43450;BME280;29041;42.266;23.110;2023-08-08T08:40:27;95922.53;;;27.32;39.05
43450;BME280;29041;42.266;23.110;2023-08-08T08:43:15;95920.97;;;29.15;37.10
43450;BME280;29041;42.266;23.110;2023-08-08T08:46:03;95914.97;;;28.78;37.03
43450;BME280;29041;42.266;23.110;2023-08-08T08:48:51;95921.13;;;27.77;38.81
43450;BME280;29041;42.266;23.110;2023-08-08T08:51:38;95917.53;;;28.26;36.80
43450;BME280;29041;42.266;23.110;2023-08-08T08:54:27;95914.81;;;29.37;36.26
43450;BME280;29041;42.266;23.110;2023-08-08T08:57:15;95920.09;;;27.54;37.48
43450;BME280;29041;42.266;23.110;2023-08-08T09:00:03;95926.81;;;28.91;36.68
43450;BME280;29041;42.266;23.110;2023-08-08T09:02:52;95916.31;;;27.65;37.96
43450;BME280;29041;42.266;23.110;2023-08-08T09:05:41;95922.16;;;28.75;34.91
43450;BME280;29041;42.266;23.110;2023-08-08T09:08:30;95923.88;;;28.40;37.80
43450;BME280;29041;42.266;23.110;2023-08-08T09:11:17;95899.91;;;29.34;35.99
43450;BME280;29041;42.266;23.110;2023-08-08T09:14:15;95920.66;;;28.28;39.01
43450;BME280;29041;42.266;23.110;2023-08-08T09:17:02;95904.34;;;29.44;35.94
43450;BME280;29041;42.266;23.110;2023-08-08T09:19:49;95930.84;;;27.82;38.22
43450;BME280;29041;42.266;23.110;2023-08-08T09:22:36;95914.69;;;28.59;38.55
43450;BME280;29041;42.266;23.110;2023-08-08T09:25:24;95923.97;;;27.57;39.34
43450;BME280;29041;42.266;23.110;2023-08-08T09:28:12;95911.50;;;26.15;43.23
43450;BME280;29041;42.266;23.110;2023-08-08T09:31:01;95919.88;;;26.92;43.83
43450;BME280;29041;42.266;23.110;2023-08-08T09:33:48;95920.69;;;27.46;40.54
43450;BME280;29041;42.266;23.110;2023-08-08T09:36:37;95927.47;;;28.24;37.95
43450;BME280;29041;42.266;23.110;2023-08-08T09:39:24;95924.78;;;27.37;38.55
43450;BME280;29041;42.266;23.110;2023-08-08T09:42:11;95931.47;;;26.19;41.42
43450;BME280;29041;42.266;23.110;2023-08-08T09:45:00;95922.69;;;28.83;37.20
43450;BME280;29041;42.266;23.110;2023-08-08T09:47:49;95924.81;;;25.93;44.92
43450;BME280;29041;42.266;23.110;2023-08-08T09:50:38;95932.22;;;26.84;41.21
43450;BME280;29041;42.266;23.110;2023-08-08T09:53:27;95925.50;;;25.77;41.33
43450;BME280;29041;42.266;23.110;2023-08-08T09:56:14;95909.75;;;26.01;40.02
43450;BME280;29041;42.266;23.110;2023-08-08T09:59:02;95922.88;;;24.84;43.01
43450;BME280;29041;42.266;23.110;2023-08-08T10:01:52;95926.44;;;24.08;44.22
43450;BME280;29041;42.266;23.110;2023-08-08T10:04:41;95930.47;;;23.40;48.95
43450;BME280;29041;42.266;23.110;2023-08-08T10:07:28;95933.59;;;23.42;49.48
43450;BME280;29041;42.266;23.110;2023-08-08T10:10:16;95921.47;;;23.43;50.70
43450;BME280;29041;42.266;23.110;2023-08-08T10:13:05;95906.81;;;24.10;46.88
43450;BME280;29041;42.266;23.110;2023-08-08T10:15:53;95922.00;;;23.72;45.79
43450;BME280;29041;42.266;23.110;2023-08-08T10:18:41;95913.13;;;22.97;48.88
43450;BME280;29041;42.266;23.110;2023-08-08T10:21:32;95919.50;;;22.69;49.56
43450;BME280;29041;42.266;23.110;2023-08-08T10:24:20;95921.28;;;23.68;47.91
43450;BME280;29041;42.266;23.110;2023-08-08T10:27:07;95931.06;;;23.06;48.02
43450;BME280;29041;42.266;23.110;2023-08-08T10:30:01;95923.59;;;23.10;48.21
43450;BME280;29041;42.266;23.110;2023-08-08T10:32:50;95928.41;;;22.91;50.10
43450;BME280;29041;42.266;23.110;2023-08-08T10:35:38;95926.66;;;23.79;49.85
43450;BME280;29041;42.266;23.110;2023-08-08T10:38:38;95931.50;;;24.10;46.56
43450;BME280;29041;42.266;23.110;2023-08-08T10:41:26;95913.56;;;24.05;45.64
43450;BME280;29041;42.266;23.110;2023-08-08T10:44:20;95924.19;;;23.47;46.99
43450;BME280;29041;42.266;23.110;2023-08-08T10:47:07;95912.88;;;23.41;47.69
43450;BME280;29041;42.266;23.110;2023-08-08T10:50:04;95913.53;;;22.96;47.80
43450;BME280;29041;42.266;23.110;2023-08-08T10:52:53;95909.50;;;23.15;47.14
43450;BME280;29041;42.266;23.110;2023-08-08T10:55:43;95914.47;;;23.87;45.05
43450;BME280;29041;42.266;23.110;2023-08-08T10:58:38;95910.19;;;23.30;47.33
43450;BME280;29041;42.266;23.110;2023-08-08T11:01:26;95899.00;;;23.03;47.62
43450;BME280;29041;42.266;23.110;2023-08-08T11:04:43;95903.47;;;23.95;45.32
43450;BME280;29041;42.266;23.110;2023-08-08T11:07:31;95906.25;;;23.38;45.74
43450;BME280;29041;42.266;23.110;2023-08-08T11:10:18;95905.09;;;23.36;45.82
43450;BME280;29041;42.266;23.110;2023-08-08T11:13:07;95891.34;;;23.43;47.04
43450;BME280;29041;42.266;23.110;2023-08-08T11:15:55;95905.16;;;23.77;47.35
43450;BME280;29041;42.266;23.110;2023-08-08T11:18:42;95916.31;;;23.52;46.09
43450;BME280;29041;42.266;23.110;2023-08-08T11:21:29;95892.78;;;24.04;45.29
43450;BME280;29041;42.266;23.110;2023-08-08T11:24:16;95894.31;;;24.78;45.27
43450;BME280;29041;42.266;23.110;2023-08-08T11:27:04;95904.69;;;24.28;45.54
43450;BME280;29041;42.266;23.110;2023-08-08T11:29:52;95906.19;;;23.95;44.31
43450;BME280;29041;42.266;23.110;2023-08-08T11:32:42;95891.84;;;23.76;46.04
43450;BME280;29041;42.266;23.110;2023-08-08T11:35:30;95911.81;;;24.22;43.85
43450;BME280;29041;42.266;23.110;2023-08-08T11:38:17;95901.91;;;23.94;46.44
43450;BME280;29041;42.266;23.110;2023-08-08T11:41:04;95890.66;;;23.77;46.74
43450;BME280;29041;42.266;23.110;2023-08-08T11:43:52;95898.53;;;24.51;44.04
43450;BME280;29041;42.266;23.110;2023-08-08T11:46:45;95888.75;;;24.50;45.37
43450;BME280;29041;42.266;23.110;2023-08-08T11:49:40;95882.84;;;23.75;47.09
43450;BME280;29041;42.266;23.110;2023-08-08T11:52:27;95886.25;;;24.63;45.33
43450;BME280;29041;42.266;23.110;2023-08-08T11:55:15;95888.50;;;24.03;46.85
43450;BME280;29041;42.266;23.110;2023-08-08T11:58:02;95892.91;;;23.44;45.19
43450;BME280;29041;42.266;23.110;2023-08-08T12:00:51;95878.81;;;23.87;47.85
43450;BME280;29041;42.266;23.110;2023-08-08T12:03:41;95890.84;;;23.55;47.63
43450;BME280;29041;42.266;23.110;2023-08-08T12:06:29;95875.63;;;23.92;46.46
43450;BME280;29041;42.266;23.110;2023-08-08T12:09:16;95869.56;;;24.16;47.75
43450;BME280;29041;42.266;23.110;2023-08-08T12:12:04;95865.72;;;23.64;48.12
43450;BME280;29041;42.266;23.110;2023-08-08T12:14:53;95861.13;;;23.54;47.12
43450;BME280;29041;42.266;23.110;2023-08-08T12:17:42;95858.22;;;23.72;46.87
43450;BME280;29041;42.266;23.110;2023-08-08T12:20:31;95848.31;;;23.40;45.43
43450;BME280;29041;42.266;23.110;2023-08-08T12:23:18;95849.63;;;22.50;48.37
43450;BME280;29041;42.266;23.110;2023-08-08T12:26:07;95858.22;;;23.72;46.70
43450;BME280;29041;42.266;23.110;2023-08-08T12:28:54;95845.00;;;24.05;46.34
43450;BME280;29041;42.266;23.110;2023-08-08T12:31:41;95840.59;;;23.73;46.77
43450;BME280;29041;42.266;23.110;2023-08-08T12:34:28;95823.63;;;23.43;46.33
43450;BME280;29041;42.266;23.110;2023-08-08T12:37:17;95849.03;;;23.93;46.26
43450;BME280;29041;42.266;23.110;2023-08-08T12:40:05;95827.44;;;23.53;45.39
43450;BME280;29041;42.266;23.110;2023-08-08T12:42:53;95851.06;;;23.36;45.18
43450;BME280;29041;42.266;23.110;2023-08-08T12:45:40;95844.97;;;23.67;47.95
43450;BME280;29041;42.266;23.110;2023-08-08T12:48:27;95848.34;;;23.33;45.71
43450;BME280;29041;42.266;23.110;2023-08-08T12:51:14;95830.13;;;23.11;47.81
43450;BME280;29041;42.266;23.110;2023-08-08T12:54:04;95843.41;;;23.13;46.25
43450;BME280;29041;42.266;23.110;2023-08-08T12:56:51;95840.91;;;23.82;47.06
43450;BME280;29041;42.266;23.110;2023-08-08T12:59:38;95832.13;;;23.56;47.49
43450;BME280;29041;42.266;23.110;2023-08-08T13:02:25;95837.41;;;23.78;46.76
43450;BME280;29041;42.266;23.110;2023-08-08T13:05:13;95825.28;;;23.75;48.84
43450;BME280;29041;42.266;23.110;2023-08-08T13:08:00;95811.13;;;23.81;46.21
43450;BME280;29041;42.266;23.110;2023-08-08T13:10:48;95820.97;;;24.16;45.63
43450;BME280;29041;42.266;23.110;2023-08-08T13:13:36;95823.66;;;23.82;47.15
43450;BME280;29041;42.266;23.110;2023-08-08T13:16:23;95815.16;;;23.69;45.18
43450;BME280;29041;42.266;23.110;2023-08-08T13:19:10;95800.56;;;23.41;46.75
43450;BME280;29041;42.266;23.110;2023-08-08T13:21:57;95799.50;;;23.69;46.44
43450;BME280;29041;42.266;23.110;2023-08-08T13:24:45;95804.63;;;23.67;47.53
43450;BME280;29041;42.266;23.110;2023-08-08T13:27:33;95775.84;;;22.99;48.31
43450;BME280;29041;42.266;23.110;2023-08-08T13:30:20;95796.78;;;23.24;48.79
43450;BME280;29041;42.266;23.110;2023-08-08T13:33:08;95795.59;;;22.69;48.92
43450;BME280;29041;42.266;23.110;2023-08-08T13:35:56;95790.34;;;22.96;48.16
43450;BME280;29041;42.266;23.110;2023-08-08T13:38:43;95786.53;;;23.32;47.96
43450;BME280;29041;42.266;23.110;2023-08-08T13:41:30;95805.19;;;23.48;49.39
43450;BME280;29041;42.266;23.110;2023-08-08T13:44:18;95779.13;;;23.32;48.02
43450;BME280;29041;42.266;23.110;2023-08-08T13:47:05;95786.13;;;23.37;48.57
43450;BME280;29041;42.266;23.110;2023-08-08T13:49:52;95778.88;;;23.57;47.88
43450;BME280;29041;42.266;23.110;2023-08-08T13:52:40;95796.31;;;23.33;49.69
43450;BME280;29041;42.266;23.110;2023-08-08T13:55:27;95797.22;;;23.64;47.87
43450;BME280;29041;42.266;23.110;2023-08-08T13:58:14;95786.56;;;23.70;47.11
43450;BME280;29041;42.266;23.110;2023-08-08T14:01:03;95770.44;;;23.79;48.10
43450;BME280;29041;42.266;23.110;2023-08-08T14:03:50;95786.22;;;23.68;49.72
43450;BME280;29041;42.266;23.110;2023-08-08T14:06:37;95780.28;;;23.73;47.67
43450;BME280;29041;42.266;23.110;2023-08-08T14:09:25;95779.72;;;23.51;48.48
43450;BME280;29041;42.266;23.110;2023-08-08T14:12:12;95771.16;;;23.83;46.99
43450;BME280;29041;42.266;23.110;2023-08-08T14:14:59;95781.84;;;24.12;47.75
43450;BME280;29041;42.266;23.110;2023-08-08T14:17:47;95769.28;;;23.38;48.48
43450;BME280;29041;42.266;23.110;2023-08-08T14:20:35;95779.56;;;23.23;48.99
43450;BME280;29041;42.266;23.110;2023-08-08T14:23:22;95776.72;;;23.76;48.48
43450;BME280;29041;42.266;23.110;2023-08-08T14:26:09;95780.09;;;24.26;47.31
43450;BME280;29041;42.266;23.110;2023-08-08T14:28:57;95776.94;;;23.96;47.31
43450;BME280;29041;42.266;23.110;2023-08-08T14:31:44;95777.81;;;23.86;49.12
43450;BME280;29041;42.266;23.110;2023-08-08T14:34:33;95779.44;;;24.14;46.28
43450;BME280;29041;42.266;23.110;2023-08-08T14:37:23;95779.31;;;23.90;47.32
43450;BME280;29041;42.266;23.110;2023-08-08T14:40:10;95768.44;;;24.18;47.42